East Winfield, New York
Current Conditions -  °F | °C
As of 9:53 PM on Friday 19 Dec 2014 (Local Time) from KRME Reporting Station
Broken Clouds Broken Clouds  
Wind Chill: 14°   Ceiling: 1800
Heat Index: 22°   Visibility: 10mi
Dew Point: 17°   Wind: 6mph
Humidity: 82%   Direction: 350°N
Pressure: 30.24"   Gusts: NA
Location:  42.8676°N, 75.1875°W
Report Text: KRME 200253Z AUTO 35005KT 10SM BKN018 M06/M08 A3024 RMK AO2 SLP246 T10561083 51006
Loading
Personal Weather Stations






























Interactive Weather Map New forecast layout! Learn more

10-Day Weather Forecast

Advertisements
Track Severe Weather on mobile